createdAt,value
2022-09-26T00:03:30.949Z,9.50
2022-09-26T00:07:32.331Z,9.25
2022-09-26T00:11:35.247Z,9.38
2022-09-26T00:15:36.669Z,9.70
2022-09-26T00:19:38.269Z,9.40
2022-09-26T00:23:41.794Z,10.20
2022-09-26T00:27:43.360Z,9.63
2022-09-26T00:31:46.294Z,10.13
2022-09-26T00:35:55.427Z,8.98
2022-09-26T00:39:56.878Z,9.60
2022-09-26T00:43:58.336Z,9.63
2022-09-26T00:48:05.597Z,8.52
2022-09-26T00:52:13.138Z,9.32
2022-09-26T00:56:18.431Z,8.60
2022-09-26T01:00:20.325Z,8.50
2022-09-26T01:04:22.896Z,8.85
2022-09-26T01:08:30.423Z,9.40
2022-09-26T01:12:32.995Z,9.60
2022-09-26T01:16:35.042Z,9.10
2022-09-26T01:20:47.972Z,9.82
2022-09-26T01:24:52.369Z,9.93
2022-09-26T01:29:21.811Z,8.23
2022-09-26T01:33:32.863Z,7.93
2022-09-26T01:37:49.367Z,8.45
2022-09-26T01:42:06.497Z,8.90
2022-09-26T01:46:19.184Z,8.07
2022-09-26T01:50:36.065Z,9.70
2022-09-26T01:54:52.112Z,9.10
2022-09-26T01:58:58.088Z,9.43
2022-09-26T02:03:00.456Z,9.05
2022-09-26T02:07:18.301Z,10.73
2022-09-26T02:11:19.999Z,9.60
2022-09-26T02:15:24.450Z,10.30
2022-09-26T02:19:33.197Z,9.23
2022-09-26T02:23:34.553Z,11.18
2022-09-26T02:27:35.956Z,9.57
2022-09-26T02:31:42.429Z,9.50
2022-09-26T02:35:56.419Z,9.63
2022-09-26T02:39:58.140Z,9.45
2022-09-26T02:44:15.220Z,10.45
2022-09-26T02:48:29.375Z,9.18
2022-09-26T02:52:50.835Z,9.00
2022-09-26T02:57:06.105Z,8.88
2022-09-26T03:01:18.057Z,8.80
2022-09-26T03:05:21.984Z,8.65
2022-09-26T03:09:24.926Z,8.52
2022-09-26T03:13:27.039Z,8.48
2022-09-26T03:17:29.250Z,8.25
2022-09-26T03:21:34.894Z,8.38
2022-09-26T03:25:38.606Z,7.75
2022-09-26T03:29:40.426Z,7.13
2022-09-26T03:33:42.014Z,7.43
2022-09-26T03:37:43.473Z,6.80
2022-09-26T03:41:45.381Z,8.05
2022-09-26T03:45:47.342Z,7.82
2022-09-26T03:49:49.023Z,7.13
2022-09-26T03:53:50.475Z,7.15
2022-09-26T03:57:52.214Z,7.25
2022-09-26T04:01:53.768Z,7.90
2022-09-26T04:05:55.481Z,8.05
2022-09-26T04:09:57.057Z,6.28
2022-09-26T04:13:58.694Z,7.40
2022-09-26T04:18:00.119Z,6.45
2022-09-26T04:22:01.807Z,6.60
2022-09-26T04:26:20.231Z,6.07
2022-09-26T04:30:24.347Z,6.40
2022-09-26T04:34:27.474Z,5.53
2022-09-26T04:38:32.587Z,6.25
2022-09-26T04:42:36.842Z,6.10
2022-09-26T04:46:38.591Z,5.93
2022-09-26T04:50:40.519Z,5.38
2022-09-26T04:54:42.079Z,6.20
2022-09-26T04:58:44.238Z,5.25
2022-09-26T05:02:48.673Z,5.70
2022-09-26T05:06:50.058Z,6.68
2022-09-26T05:10:53.539Z,5.95
2022-09-26T05:14:57.024Z,5.95
2022-09-26T05:18:58.621Z,6.55
2022-09-26T05:23:01.132Z,5.47
2022-09-26T05:27:05.450Z,5.32
2022-09-26T05:31:08.830Z,5.65
2022-09-26T05:35:10.785Z,6.20
2022-09-26T05:39:31.386Z,5.97
2022-09-26T05:43:34.523Z,5.65
2022-09-26T05:47:36.520Z,6.50
2022-09-26T05:51:41.494Z,6.20
2022-09-26T05:55:42.910Z,5.63
2022-09-26T05:59:44.464Z,6.00
2022-09-26T06:03:46.897Z,5.70
2022-09-26T06:07:48.256Z,6.32
2022-09-26T06:11:49.614Z,6.88
2022-09-26T06:15:52.296Z,5.65
2022-09-26T06:19:53.748Z,5.90
2022-09-26T06:23:55.199Z,6.22
2022-09-26T06:28:00.117Z,6.95
2022-09-26T06:32:02.402Z,6.00
2022-09-26T06:36:06.239Z,5.20
2022-09-26T06:40:09.603Z,6.00
2022-09-26T06:44:10.978Z,5.40
2022-09-26T06:48:13.352Z,5.40
2022-09-26T06:52:14.715Z,5.70
2022-09-26T06:56:17.433Z,5.50
2022-09-26T07:00:18.968Z,5.82
2022-09-26T07:04:20.534Z,6.45
2022-09-26T07:08:37.392Z,5.15
2022-09-26T07:12:46.259Z,5.25
2022-09-26T07:16:53.766Z,4.15
2022-09-26T07:20:56.918Z,4.97
2022-09-26T07:24:58.528Z,4.57
2022-09-26T07:29:00.223Z,4.38
2022-09-26T07:33:05.953Z,5.05
2022-09-26T07:37:07.724Z,4.00
2022-09-26T07:41:11.680Z,4.38
2022-09-26T07:45:29.895Z,5.03
2022-09-26T07:49:50.255Z,4.55
2022-09-26T07:53:51.840Z,3.85
2022-09-26T07:57:53.280Z,3.90
2022-09-26T08:01:54.974Z,4.28
2022-09-26T08:06:01.141Z,4.00
2022-09-26T08:10:07.148Z,4.00
2022-09-26T08:14:08.973Z,3.83
2022-09-26T08:18:10.596Z,4.47
2022-09-26T08:22:12.406Z,3.47
2022-09-26T08:26:14.747Z,3.47
2022-09-26T08:30:16.609Z,4.53
2022-09-26T08:34:22.699Z,5.40
2022-09-26T08:38:27.483Z,4.65
2022-09-26T08:42:52.127Z,4.50
2022-09-26T08:47:06.541Z,3.58
2022-09-26T08:51:35.903Z,3.72
2022-09-26T08:55:42.707Z,3.42
2022-09-26T08:59:47.032Z,3.80
2022-09-26T09:03:52.956Z,3.53
2022-09-26T09:07:57.205Z,3.17
2022-09-26T09:12:12.040Z,2.97
2022-09-26T09:16:53.232Z,2.45
2022-09-26T09:21:27.468Z,2.22
2022-09-26T09:25:32.833Z,2.70
2022-09-26T09:29:49.339Z,2.83
2022-09-26T09:33:55.887Z,2.83
2022-09-26T09:37:58.021Z,2.45
2022-09-26T09:42:26.298Z,2.55
2022-09-26T09:46:31.461Z,3.15
2022-09-26T09:50:57.499Z,1.65
2022-09-26T09:55:13.706Z,2.30
2022-09-26T09:59:53.418Z,2.60
2022-09-26T10:04:04.952Z,2.30
2022-09-26T10:08:35.426Z,2.67
2022-09-26T10:12:39.243Z,2.15
2022-09-26T10:17:11.839Z,2.10
2022-09-26T10:21:17.945Z,1.83
2022-09-26T10:25:23.027Z,1.60
2022-09-26T10:29:34.648Z,1.88
2022-09-26T10:33:39.116Z,1.48
2022-09-26T10:37:42.038Z,1.42
2022-09-26T10:41:45.600Z,1.50
2022-09-26T10:45:49.003Z,1.25
2022-09-26T10:50:01.749Z,1.67
2022-09-26T10:54:07.893Z,1.10
2022-09-26T10:58:15.522Z,1.10
2022-09-26T11:02:21.916Z,0.80
2022-09-26T11:06:32.262Z,0.90
2022-09-26T11:10:34.270Z,1.60
2022-09-26T11:14:45.107Z,1.27
2022-09-26T11:19:17.212Z,1.00
2022-09-26T11:23:44.445Z,0.93
2022-09-26T11:27:53.936Z,1.10
2022-09-26T11:32:00.169Z,0.77
2022-09-26T11:36:39.650Z,0.88
2022-09-26T11:41:01.737Z,0.93
2022-09-26T11:46:03.478Z,0.80
2022-09-26T11:50:08.244Z,0.90
2022-09-26T11:54:24.945Z,0.90
2022-09-26T11:58:38.412Z,1.02
2022-09-26T12:02:56.330Z,1.13
2022-09-26T12:07:07.438Z,1.00
2022-09-26T12:11:17.111Z,1.20
2022-09-26T12:15:30.538Z,1.27
2022-09-26T12:19:55.913Z,1.40
2022-09-26T12:24:08.933Z,0.95
2022-09-26T12:28:13.267Z,1.33
2022-09-26T12:32:24.119Z,0.70
2022-09-26T12:36:47.687Z,0.80
2022-09-26T12:41:13.833Z,0.60
2022-09-26T12:45:57.129Z,0.60
2022-09-26T12:50:10.604Z,0.73
2022-09-26T12:54:22.551Z,0.93
2022-09-26T12:58:55.517Z,0.60
2022-09-26T13:03:10.575Z,0.60
2022-09-26T13:07:34.105Z,0.50
2022-09-26T13:11:52.667Z,0.45
2022-09-26T13:16:28.133Z,0.60
2022-09-26T13:20:41.332Z,0.50
2022-09-26T13:24:49.429Z,0.75
2022-09-26T13:29:13.317Z,0.65
2022-09-26T13:33:33.923Z,1.10
2022-09-26T13:37:47.831Z,1.00
2022-09-26T13:42:01.689Z,0.45
2022-09-26T13:46:23.710Z,0.60
2022-09-26T13:50:48.070Z,0.68
2022-09-26T13:55:03.647Z,0.90
2022-09-26T13:59:10.179Z,0.60
2022-09-26T14:03:17.558Z,0.80
2022-09-26T14:07:41.913Z,1.15
2022-09-26T14:11:48.983Z,0.82
2022-09-26T14:16:07.478Z,0.93
2022-09-26T14:20:17.425Z,0.70
2022-09-26T14:24:27.269Z,0.85
2022-09-26T14:28:36.334Z,0.90
2022-09-26T14:32:39.492Z,0.80
2022-09-26T14:36:41.575Z,1.00
2022-09-26T14:40:59.555Z,0.98
2022-09-26T14:45:06.714Z,0.93
2022-09-26T14:49:20.429Z,1.08
2022-09-26T14:53:34.344Z,1.13
2022-09-26T14:57:36.702Z,1.10
2022-09-26T15:01:38.793Z,1.13
2022-09-26T15:05:43.872Z,0.90
2022-09-26T15:09:50.134Z,0.88
2022-09-26T15:13:52.576Z,0.82
2022-09-26T15:18:02.094Z,0.73
2022-09-26T15:22:13.101Z,0.65
2022-09-26T15:26:28.888Z,1.30
2022-09-26T15:30:37.327Z,0.75
2022-09-26T15:34:39.783Z,0.55
2022-09-26T15:38:45.112Z,0.75
2022-09-26T15:42:58.541Z,0.65
2022-09-26T15:47:00.668Z,0.70
2022-09-26T15:51:16.062Z,0.70
2022-09-26T15:55:23.878Z,0.82
2022-09-26T16:03:45.822Z,1.00
2022-09-26T16:07:49.982Z,0.85
2022-09-26T16:11:55.481Z,1.17
2022-09-26T16:16:02.805Z,0.93
2022-09-26T16:20:13.417Z,1.08
2022-09-26T16:24:34.456Z,1.02
2022-09-26T16:28:44.088Z,0.95
2022-09-26T16:32:45.609Z,1.20
2022-09-26T16:36:47.823Z,1.20
2022-09-26T16:40:50.991Z,1.02
2022-09-26T16:44:55.028Z,1.17
2022-09-26T16:48:57.900Z,1.20
2022-09-26T16:53:00.374Z,1.27
2022-09-26T16:57:01.778Z,1.05
2022-09-26T17:01:21.725Z,1.05
2022-09-26T17:05:23.417Z,1.27
2022-09-26T17:09:33.109Z,1.30
2022-09-26T17:13:35.593Z,1.38
2022-09-26T17:17:37.166Z,2.40
2022-09-26T17:21:38.878Z,1.15
2022-09-26T17:25:41.880Z,1.30
2022-09-26T17:29:46.024Z,1.67
2022-09-26T17:33:49.347Z,1.42
2022-09-26T17:37:51.689Z,1.35
2022-09-26T17:41:55.324Z,1.58
2022-09-26T17:45:56.969Z,1.25
2022-09-26T17:49:58.563Z,1.35
2022-09-26T17:53:59.959Z,2.20
2022-09-26T17:58:02.459Z,1.50
2022-09-26T18:02:17.408Z,2.03
2022-09-26T18:06:28.137Z,2.55
2022-09-26T18:10:34.005Z,1.75
2022-09-26T18:14:35.808Z,3.25
2022-09-26T18:18:37.891Z,3.33
2022-09-26T18:22:39.344Z,2.70
2022-09-26T18:26:47.388Z,2.38
2022-09-26T18:30:57.804Z,1.60
2022-09-26T18:35:00.860Z,2.10
2022-09-26T18:39:02.438Z,2.80
2022-09-26T18:43:04.743Z,2.30
2022-09-26T18:47:13.316Z,2.35
2022-09-26T18:51:14.730Z,2.17
2022-09-26T18:55:44.347Z,2.28
2022-09-26T18:59:45.756Z,2.17
2022-09-26T19:03:48.398Z,1.85
2022-09-26T19:07:49.771Z,2.53
2022-09-26T19:11:51.365Z,2.00
2022-09-26T19:15:52.966Z,2.08
2022-09-26T19:19:54.426Z,2.00
2022-09-26T19:23:56.963Z,1.55
2022-09-26T19:27:58.680Z,1.75
2022-09-26T19:32:02.503Z,1.05
2022-09-26T19:36:04.658Z,1.00
2022-09-26T19:40:12.850Z,1.67
2022-09-26T19:44:14.959Z,1.17
2022-09-26T19:48:18.144Z,1.30
2022-09-26T19:52:20.611Z,1.17
2022-09-26T19:56:23.739Z,1.40
2022-09-26T20:00:26.417Z,1.13
2022-09-26T20:04:29.655Z,1.25
2022-09-26T20:08:31.266Z,1.25
2022-09-26T20:12:32.734Z,1.42
2022-09-26T20:16:36.089Z,1.27
2022-09-26T20:20:38.489Z,1.20
2022-09-26T20:24:40.332Z,1.20
2022-09-26T20:28:41.709Z,1.05
2022-09-26T20:32:43.122Z,1.42
2022-09-26T20:36:49.582Z,0.98
2022-09-26T20:40:51.388Z,0.95
2022-09-26T20:44:52.927Z,1.45
2022-09-26T20:48:54.846Z,0.93
2022-09-26T20:52:56.502Z,1.30
2022-09-26T20:56:59.387Z,1.05
2022-09-26T21:01:00.983Z,5.03
2022-09-26T21:05:03.507Z,0.90
2022-09-26T21:09:05.043Z,1.00
2022-09-26T21:13:06.541Z,0.95
2022-09-26T21:17:16.424Z,1.90
2022-09-26T21:21:26.528Z,1.05
2022-09-26T21:25:30.400Z,1.05
2022-09-26T21:29:31.749Z,0.88
2022-09-26T21:33:33.170Z,1.10
2022-09-26T21:37:34.749Z,1.00
2022-09-26T21:41:36.395Z,1.20
2022-09-26T21:45:37.968Z,1.88
2022-09-26T21:49:39.341Z,2.15
2022-09-26T21:53:45.690Z,4.18
2022-09-26T21:57:48.754Z,6.30
2022-09-26T22:01:50.628Z,7.50
2022-09-26T22:05:52.259Z,8.18
2022-09-26T22:09:53.714Z,6.88
2022-09-26T22:13:56.423Z,5.72
2022-09-26T22:17:58.002Z,4.55
2022-09-26T22:22:00.727Z,4.00
2022-09-26T22:26:02.486Z,3.55
2022-09-26T22:30:05.653Z,2.40
2022-09-26T22:34:07.300Z,1.95
2022-09-26T22:38:08.948Z,1.30
2022-09-26T22:42:11.977Z,1.75
2022-09-26T22:46:13.838Z,1.10
2022-09-26T22:50:15.486Z,1.27
2022-09-26T22:54:16.913Z,1.05
2022-09-26T22:58:18.337Z,1.00
2022-09-26T23:02:20.044Z,0.80
2022-09-26T23:06:22.573Z,1.13
2022-09-26T23:10:24.223Z,1.30
2022-09-26T23:14:25.667Z,1.00
2022-09-26T23:18:27.142Z,1.08
2022-09-26T23:22:28.513Z,1.20
2022-09-26T23:26:31.991Z,0.80
2022-09-26T23:30:33.358Z,1.02
2022-09-26T23:34:34.773Z,1.10
2022-09-26T23:38:37.946Z,1.00
2022-09-26T23:42:39.488Z,0.73
2022-09-26T23:46:41.175Z,1.00
2022-09-26T23:50:44.687Z,0.90
2022-09-26T23:54:46.369Z,0.95
2022-09-26T23:58:48.219Z,0.80
